Time;durP1;ratioP1;P1;durP2;ratioP2;P2;SDS_P1;SDS_P2;PMS_P1;PMS_P2;Temp;Humidity;BMP_temperature;BMP_pressure;BME280_temperature;BME280_humidity;BME280_pressure;Samples;Min_cycle;Max_cycle;Signal;HPM_P1;HPM_P2
2022/02/01 00:01:26;;;;;;;2.53;1.20;;;5.40;99.90;;;;;;5055240;28;20231;-56
2022/02/01 00:03:58;;;;;;;3.87;1.40;;;5.50;99.90;;;;;;5054960;28;20315;-56
2022/02/01 00:06:30;;;;;;;3.67;1.70;;;5.50;99.90;;;;;;5055209;28;20217;-56
2022/02/01 00:09:06;;;;;;;4.77;1.53;;;5.70;99.90;;;;;;5054817;28;20202;-56
2022/02/01 00:11:43;;;;;;;4.37;1.83;;;5.60;99.90;;;;;;5055464;28;20269;-56
2022/02/01 00:14:18;;;;;;;4.07;1.67;;;5.50;99.90;;;;;;5054697;28;20236;-57
2022/02/01 00:17:05;;;;;;;3.10;1.83;;;5.40;99.90;;;;;;5055139;28;20209;-56
2022/02/01 00:19:46;;;;;;;4.10;1.80;;;5.30;99.90;;;;;;5054509;28;20210;-56
2022/02/01 00:33:42;;;;;;;4.37;1.37;;;5.70;99.90;;;;;;5054582;28;20247;-58
2022/02/01 00:36:20;;;;;;;2.80;1.53;;;5.70;99.90;;;;;;5053576;28;20201;-56
2022/02/01 00:38:54;;;;;;;2.57;1.33;;;5.80;99.90;;;;;;5054366;28;20209;-57
2022/02/01 00:41:26;;;;;;;2.60;1.40;;;5.70;99.90;;;;;;5054511;28;20240;-56
2022/02/01 00:43:54;;;;;;;2.13;1.23;;;5.60;99.90;;;;;;5054372;28;20248;-57
2022/02/01 00:46:21;;;;;;;3.53;0.97;;;5.70;99.90;;;;;;5054256;28;20681;-57
2022/02/01 00:48:48;;;;;;;1.87;1.30;;;5.70;99.90;;;;;;5053880;28;20205;-56
2022/02/01 00:51:15;;;;;;;5.33;1.53;;;5.80;99.90;;;;;;5054403;28;20382;-56
2022/02/01 00:53:42;;;;;;;4.03;1.60;;;5.80;99.90;;;;;;5054431;28;20229;-56
2022/02/01 00:56:10;;;;;;;2.50;1.40;;;5.60;99.90;;;;;;5054036;28;20696;-57
2022/02/01 00:58:38;;;;;;;1.60;1.00;;;5.50;99.90;;;;;;5053786;28;20206;-56
2022/02/01 01:01:06;;;;;;;3.77;1.50;;;5.40;99.90;;;;;;5053871;28;20217;-56
2022/02/01 01:03:33;;;;;;;2.27;1.50;;;5.30;99.90;;;;;;5054089;28;20226;-56
2022/02/01 01:06:00;;;;;;;1.77;0.83;;;5.40;99.90;;;;;;5054049;28;20213;-56
2022/02/01 01:08:27;;;;;;;3.20;1.33;;;5.40;99.90;;;;;;5053853;28;20296;-56
2022/02/01 01:10:54;;;;;;;4.20;1.50;;;5.50;99.90;;;;;;5053549;28;20669;-56
2022/02/01 01:13:45;;;;;;;1.47;1.20;;;5.60;99.90;;;;;;5053779;28;20676;-57
2022/02/01 01:16:28;;;;;;;1.97;1.00;;;5.60;99.90;;;;;;5053998;28;20216;-56
2022/02/01 01:43:39;;;;;;;4.17;1.70;;;5.30;99.90;;;;;;5053426;28;20220;-57
2022/02/01 01:46:29;;;;;;;2.97;1.77;;;5.40;99.90;;;;;;5053550;28;20568;-56
2022/02/01 01:54:27;;;;;;;3.37;1.30;;;5.40;99.90;;;;;;5053026;28;20279;-56
2022/02/01 01:56:56;;;;;;;3.27;1.03;;;5.40;99.90;;;;;;5053088;28;20205;-56
2022/02/01 01:59:24;;;;;;;2.73;1.47;;;5.40;99.90;;;;;;5052887;28;20201;-56
2022/02/01 02:01:51;;;;;;;2.63;1.27;;;5.40;99.90;;;;;;5052937;28;20264;-56
2022/02/01 02:04:19;;;;;;;2.27;1.40;;;5.30;99.90;;;;;;5053068;28;20253;-55
2022/02/01 02:06:47;;;;;;;4.37;1.80;;;5.30;99.90;;;;;;5052841;28;20209;-56
2022/02/01 02:09:14;;;;;;;4.37;1.57;;;5.30;99.90;;;;;;5052738;28;20588;-55
2022/02/01 02:11:43;;;;;;;2.87;1.60;;;5.20;99.90;;;;;;5052988;28;20625;-55
2022/02/01 02:14:20;;;;;;;7.23;2.40;;;5.20;99.90;;;;;;5052510;28;20328;-56
2022/02/01 02:16:49;;;;;;;4.73;2.20;;;5.20;99.90;;;;;;5052806;28;20628;-56
2022/02/01 02:19:16;;;;;;;4.30;1.97;;;5.20;99.90;;;;;;5052577;28;20212;-56
2022/02/01 02:21:48;;;;;;;5.63;2.30;;;5.30;99.90;;;;;;5052855;28;20225;-55
2022/02/01 02:24:16;;;;;;;5.23;2.20;;;5.30;99.90;;;;;;5053401;28;20256;-57
2022/02/01 02:26:43;;;;;;;7.57;2.10;;;5.20;99.90;;;;;;5054495;28;20212;-55
2022/02/01 02:29:10;;;;;;;5.23;2.10;;;5.20;99.90;;;;;;5054875;28;20221;-55
2022/02/01 02:31:39;;;;;;;3.47;2.03;;;5.10;99.90;;;;;;5055277;28;20224;-56
2022/02/01 02:34:09;;;;;;;5.00;1.93;;;5.20;99.90;;;;;;5054546;28;20256;-57
2022/02/01 02:36:42;;;;;;;12.67;2.77;;;5.30;99.90;;;;;;5054826;28;20245;-55
2022/02/01 02:39:21;;;;;;;8.13;2.37;;;5.30;99.90;;;;;;5054363;28;20260;-56
2022/02/01 02:41:52;;;;;;;7.10;2.20;;;5.20;99.90;;;;;;5053876;28;20229;-56
2022/02/01 02:47:06;;;;;;;7.97;2.13;;;5.20;99.90;;;;;;5054785;28;20213;-56
2022/02/01 02:49:33;;;;;;;11.63;2.60;;;5.10;99.90;;;;;;5054348;28;20205;-56
2022/02/01 02:51:59;;;;;;;12.27;3.00;;;5.10;99.90;;;;;;5054479;28;20213;-56
2022/02/01 02:54:29;;;;;;;7.57;2.67;;;5.10;99.90;;;;;;5052890;28;20624;-55
2022/02/01 02:56:57;;;;;;;10.97;2.70;;;5.10;99.90;;;;;;5052332;28;20210;-55
2022/02/01 02:59:26;;;;;;;8.00;2.40;;;5.00;99.90;;;;;;5052932;28;20604;-56
2022/02/01 03:01:53;;;;;;;11.70;3.10;;;5.10;99.90;;;;;;5052439;28;20632;-56
2022/02/01 03:04:23;;;;;;;12.43;3.17;;;5.00;99.90;;;;;;5052677;28;20225;-56
2022/02/01 03:06:50;;;;;;;6.80;2.73;;;5.10;99.90;;;;;;5052284;28;20730;-56
2022/02/01 03:09:20;;;;;;;8.70;2.83;;;5.20;99.90;;;;;;5051899;28;20208;-55
2022/02/01 03:11:49;;;;;;;8.13;3.07;;;5.20;99.90;;;;;;5052307;28;20227;-55
2022/02/01 03:14:24;;;;;;;13.20;2.97;;;5.10;99.90;;;;;;5051821;28;20237;-56
2022/02/01 03:17:03;;;;;;;16.60;3.63;;;4.90;99.90;;;;;;5052024;28;20634;-55
2022/02/01 03:19:49;;;;;;;9.97;3.17;;;4.80;99.90;;;;;;5051909;28;20275;-55
2022/02/01 03:22:17;;;;;;;14.63;3.60;;;4.90;99.90;;;;;;5051805;28;20229;-55
2022/02/01 03:24:44;;;;;;;12.33;2.90;;;4.80;99.90;;;;;;5051765;28;20419;-56
2022/02/01 03:27:12;;;;;;;12.47;3.30;;;4.70;99.90;;;;;;5051673;28;20206;-56
2022/02/01 03:29:39;;;;;;;16.33;3.57;;;4.70;99.90;;;;;;5051796;28;20236;-56
2022/02/01 03:32:07;;;;;;;14.37;3.03;;;4.60;99.90;;;;;;5052056;28;20205;-55
2022/02/01 03:34:34;;;;;;;12.57;3.50;;;4.70;99.90;;;;;;5052010;28;20275;-55
2022/02/01 03:37:00;;;;;;;14.03;3.40;;;4.70;99.90;;;;;;5051936;28;20212;-56
2022/02/01 03:39:27;;;;;;;18.00;4.17;;;4.70;99.90;;;;;;5051678;28;20205;-56
2022/02/01 03:41:54;;;;;;;14.33;3.80;;;4.70;99.90;;;;;;5051932;28;20596;-56
2022/02/01 03:44:22;;;;;;;10.83;2.90;;;4.80;99.90;;;;;;5051963;28;20233;-55
2022/02/01 03:47:00;;;;;;;19.67;4.07;;;4.80;99.90;;;;;;5052010;28;20205;-55
2022/02/01 03:49:27;;;;;;;22.27;3.80;;;4.90;99.90;;;;;;5051816;28;20605;-56
2022/02/01 03:51:58;;;;;;;17.40;4.93;;;4.90;99.90;;;;;;5051779;28;20206;-56
2022/02/01 03:54:25;;;;;;;25.47;6.17;;;5.00;99.90;;;;;;5052353;28;20225;-56
2022/02/01 03:56:52;;;;;;;12.87;3.63;;;5.10;99.90;;;;;;5052369;28;20210;-55
2022/02/01 03:59:20;;;;;;;17.90;4.03;;;5.00;99.90;;;;;;5052459;28;20284;-55
2022/02/01 04:01:48;;;;;;;20.17;3.67;;;4.90;99.90;;;;;;5052726;28;20252;-56
2022/02/01 04:04:15;;;;;;;16.13;3.70;;;4.90;99.90;;;;;;5052375;28;20283;-56
2022/02/01 04:06:41;;;;;;;14.13;3.30;;;4.90;99.90;;;;;;5051997;28;20205;-56
2022/02/01 04:09:08;;;;;;;14.97;3.10;;;5.00;99.90;;;;;;5051324;28;20261;-56
2022/02/01 04:11:35;;;;;;;16.30;3.60;;;4.90;99.90;;;;;;5052499;28;20216;-56
2022/02/01 04:14:01;;;;;;;13.87;2.87;;;4.90;99.90;;;;;;5055051;28;20241;-55
2022/02/01 04:16:28;;;;;;;19.73;3.63;;;4.90;99.90;;;;;;5054812;28;20205;-56
2022/02/01 04:18:57;;;;;;;13.83;3.17;;;5.00;99.90;;;;;;5054743;28;20209;-56
2022/02/01 04:21:24;;;;;;;19.13;4.47;;;4.90;99.90;;;;;;5055397;28;20225;-56
2022/02/01 04:23:50;;;;;;;17.07;3.67;;;4.80;99.90;;;;;;5055043;28;20248;-55
2022/02/01 04:26:17;;;;;;;19.40;3.47;;;4.90;99.90;;;;;;5054818;28;20209;-56
2022/02/01 04:28:44;;;;;;;22.57;3.80;;;4.90;99.90;;;;;;5054830;28;20216;-56
2022/02/01 04:31:10;;;;;;;15.00;2.60;;;5.00;99.90;;;;;;5054255;28;20688;-56
2022/02/01 04:33:37;;;;;;;16.63;3.23;;;5.10;99.90;;;;;;5054345;28;20279;-55
2022/02/01 04:36:05;;;;;;;14.43;3.37;;;5.10;99.90;;;;;;5054865;28;20209;-55
2022/02/01 04:38:34;;;;;;;17.50;3.40;;;5.20;99.90;;;;;;5054594;28;20209;-55
2022/02/01 04:41:01;;;;;;;14.27;3.30;;;5.30;99.90;;;;;;5054263;28;20244;-56
2022/02/01 04:43:27;;;;;;;19.53;6.10;;;5.20;99.90;;;;;;5054222;28;20241;-55
2022/02/01 04:45:54;;;;;;;15.20;3.40;;;5.30;99.90;;;;;;5054429;28;20205;-56
2022/02/01 04:48:21;;;;;;;17.80;3.43;;;5.30;99.90;;;;;;5054270;28;20217;-56
2022/02/01 04:50:48;;;;;;;11.73;3.00;;;5.50;99.90;;;;;;5054305;28;20205;-55
2022/02/01 04:53:16;;;;;;;16.63;4.00;;;5.50;99.90;;;;;;5054252;28;20279;-57
2022/02/01 04:55:54;;;;;;;17.13;3.23;;;5.50;99.90;;;;;;5054303;28;20217;-56
2022/02/01 04:58:21;;;;;;;15.90;3.20;;;5.60;99.90;;;;;;5054058;28;20266;-55
2022/02/01 05:00:47;;;;;;;13.10;3.63;;;5.50;99.90;;;;;;5053631;28;20213;-56
2022/02/01 05:03:14;;;;;;;10.63;2.93;;;5.50;99.90;;;;;;5053918;28;20233;-55
2022/02/01 05:05:41;;;;;;;14.07;2.67;;;5.60;99.90;;;;;;5053950;28;20210;-56
2022/02/01 05:08:10;;;;;;;17.83;2.97;;;5.60;99.90;;;;;;5053945;28;20221;-55
2022/02/01 05:10:39;;;;;;;12.17;3.17;;;5.60;99.90;;;;;;5053642;28;20220;-56
2022/02/01 05:15:59;;;;;;;9.80;2.47;;;5.80;99.90;;;;;;5076079;22;20232;-60
2022/02/01 05:18:28;;;;;;;14.87;2.93;;;5.70;99.90;;;;;;5053490;28;20206;-60
2022/02/01 05:20:59;;;;;;;15.03;3.20;;;5.70;99.90;;;;;;5053309;28;20214;-60
2022/02/01 05:23:26;;;;;;;9.60;2.53;;;5.60;99.90;;;;;;5052930;28;20221;-60
2022/02/01 05:25:54;;;;;;;10.33;2.80;;;5.50;99.90;;;;;;5053409;28;20236;-60
2022/02/01 05:28:21;;;;;;;11.77;2.63;;;5.40;99.90;;;;;;5053404;28;20220;-61
2022/02/01 05:30:47;;;;;;;13.67;2.87;;;5.40;99.90;;;;;;5053118;28;20208;-60
2022/02/01 05:33:14;;;;;;;10.20;2.50;;;5.30;99.90;;;;;;5053134;28;20202;-60
2022/02/01 05:35:41;;;;;;;14.20;3.40;;;5.20;99.90;;;;;;5053079;28;20233;-60
2022/02/01 05:38:08;;;;;;;12.57;3.20;;;5.30;99.90;;;;;;5052815;28;20213;-60
2022/02/01 05:40:35;;;;;;;12.00;2.93;;;5.30;99.90;;;;;;5052863;28;20651;-60
2022/02/01 05:43:07;;;;;;;10.47;2.60;;;5.30;99.90;;;;;;5053373;28;20233;-60
2022/02/01 05:45:34;;;;;;;12.33;3.77;;;5.30;99.90;;;;;;5052966;28;20230;-60
2022/02/01 05:48:02;;;;;;;18.77;3.93;;;5.20;99.90;;;;;;5053047;28;20216;-60
2022/02/01 05:50:29;;;;;;;20.07;3.00;;;5.10;99.90;;;;;;5052763;28;20727;-60
2022/02/01 05:52:56;;;;;;;19.67;3.40;;;5.10;99.90;;;;;;5052788;28;20198;-60
2022/02/01 05:55:22;;;;;;;10.03;2.60;;;5.20;99.90;;;;;;5053037;28;20226;-61
2022/02/01 05:57:51;;;;;;;13.37;2.63;;;5.10;99.90;;;;;;5052618;28;20205;-60
2022/02/01 06:00:19;;;;;;;13.60;3.30;;;5.20;99.90;;;;;;5052368;28;20244;-60
2022/02/01 06:02:46;;;;;;;12.57;3.23;;;5.30;99.90;;;;;;5052348;28;20229;-60
2022/02/01 06:05:13;;;;;;;12.97;2.60;;;5.30;99.90;;;;;;5052614;28;20221;-60
2022/02/01 06:07:40;;;;;;;10.90;2.40;;;5.50;99.90;;;;;;5052414;28;20267;-60
2022/02/01 06:10:07;;;;;;;12.77;3.10;;;5.50;99.90;;;;;;5052266;28;20376;-60
2022/02/01 06:12:40;;;;;;;15.30;3.00;;;5.60;99.90;;;;;;5052523;28;20604;-60
2022/02/01 06:15:08;;;;;;;14.43;3.13;;;5.70;99.90;;;;;;5052012;28;20789;-61
2022/02/01 06:17:36;;;;;;;13.33;3.33;;;5.60;99.90;;;;;;5052250;28;20261;-60
2022/02/01 06:20:04;;;;;;;15.10;3.30;;;5.70;99.90;;;;;;5051989;28;20213;-60
2022/02/01 06:22:31;;;;;;;11.30;3.30;;;5.80;99.90;;;;;;5052305;28;20229;-60
2022/02/01 06:24:58;;;;;;;14.00;2.77;;;5.90;99.90;;;;;;5052051;28;20226;-61
2022/02/01 06:27:24;;;;;;;15.70;3.43;;;6.00;99.90;;;;;;5051973;28;20209;-61
2022/02/01 06:29:51;;;;;;;11.80;2.73;;;6.00;99.90;;;;;;5051801;28;20213;-60
2022/02/01 06:32:18;;;;;;;13.00;2.77;;;6.00;99.90;;;;;;5051669;28;20197;-60
2022/02/01 06:34:46;;;;;;;9.10;2.87;;;6.00;99.90;;;;;;5051323;28;20229;-60
2022/02/01 06:37:14;;;;;;;17.30;3.20;;;6.00;99.90;;;;;;5051789;28;20731;-61
2022/02/01 06:39:41;;;;;;;12.37;2.83;;;6.00;99.90;;;;;;5051430;28;20217;-60
2022/02/01 06:42:09;;;;;;;12.27;2.63;;;5.90;99.90;;;;;;5051687;28;20788;-60
2022/02/01 06:44:36;;;;;;;9.23;2.73;;;6.00;99.90;;;;;;5051718;28;20229;-60
2022/02/01 06:47:03;;;;;;;11.77;2.67;;;5.90;99.90;;;;;;5051732;28;20665;-60
2022/02/01 06:49:29;;;;;;;8.73;2.87;;;6.00;99.90;;;;;;5051594;28;20624;-60
2022/02/01 06:51:58;;;;;;;12.23;2.83;;;5.90;99.90;;;;;;5051656;28;20263;-60
2022/02/01 06:54:25;;;;;;;11.53;3.40;;;5.80;99.90;;;;;;5051618;28;20316;-61
2022/02/01 06:56:52;;;;;;;12.27;3.50;;;5.80;99.90;;;;;;5052080;28;20707;-60
2022/02/01 06:59:18;;;;;;;14.57;2.73;;;5.80;99.90;;;;;;5051727;28;20647;-61
2022/02/01 07:01:45;;;;;;;14.33;3.60;;;5.70;99.90;;;;;;5051533;28;20255;-61
2022/02/01 07:04:12;;;;;;;12.27;3.00;;;5.70;99.90;;;;;;5051748;28;20225;-60
2022/02/01 07:06:39;;;;;;;12.93;2.50;;;5.70;99.90;;;;;;5052041;28;20259;-61
2022/02/01 07:09:07;;;;;;;8.23;2.50;;;5.70;99.90;;;;;;5052565;28;20214;-61
2022/02/01 07:11:37;;;;;;;12.00;2.60;;;5.70;99.90;;;;;;5051978;28;20581;-60
2022/02/01 07:14:03;;;;;;;8.73;2.40;;;5.70;99.90;;;;;;5051765;28;20271;-60
2022/02/01 07:16:30;;;;;;;8.97;2.87;;;5.70;99.90;;;;;;5052142;28;20213;-60
2022/02/01 07:18:57;;;;;;;10.40;2.60;;;5.70;99.90;;;;;;5052080;28;20209;-60
2022/02/01 07:21:26;;;;;;;15.63;3.00;;;5.70;99.90;;;;;;5051596;28;20209;-60
2022/02/01 07:23:52;;;;;;;12.47;2.77;;;5.70;99.90;;;;;;5052081;28;20575;-60
2022/02/01 07:26:21;;;;;;;8.47;2.70;;;5.70;99.90;;;;;;5051429;28;20210;-60
2022/02/01 07:28:48;;;;;;;10.60;2.40;;;5.70;99.90;;;;;;5051313;28;20210;-61
2022/02/01 07:31:15;;;;;;;11.00;2.40;;;5.70;99.90;;;;;;5051351;28;20210;-60
2022/02/01 07:33:42;;;;;;;10.87;2.83;;;5.70;99.90;;;;;;5051239;28;20731;-60
2022/02/01 07:36:10;;;;;;;12.13;3.00;;;5.70;99.90;;;;;;5051346;28;20279;-61
2022/02/01 07:38:37;;;;;;;13.03;3.20;;;5.80;99.90;;;;;;5051228;28;20582;-61
2022/02/01 07:41:03;;;;;;;8.03;2.80;;;5.80;99.90;;;;;;5050880;28;20555;-60
2022/02/01 07:43:31;;;;;;;10.53;2.87;;;5.80;99.90;;;;;;5050872;28;20221;-61
2022/02/01 07:46:00;;;;;;;10.00;2.37;;;5.90;99.90;;;;;;5052952;28;20303;-60
2022/02/01 07:48:27;;;;;;;9.43;3.43;;;5.90;99.90;;;;;;5055106;28;20206;-60
2022/02/01 07:50:54;;;;;;;11.10;3.00;;;5.80;99.90;;;;;;5055335;28;20230;-61
2022/02/01 07:53:20;;;;;;;12.40;2.70;;;5.90;99.90;;;;;;5054990;28;20665;-61
2022/02/01 07:55:47;;;;;;;14.27;3.20;;;6.00;99.90;;;;;;5054681;28;20244;-61
2022/02/01 07:58:14;;;;;;;11.47;2.73;;;6.10;99.90;;;;;;5055093;28;20202;-61
2022/02/01 08:00:42;;;;;;;9.27;2.83;;;6.10;99.90;;;;;;5054628;28;20259;-60
2022/02/01 08:03:11;;;;;;;7.50;2.30;;;6.10;99.90;;;;;;5054743;28;20767;-60
2022/02/01 08:05:38;;;;;;;7.60;2.27;;;6.20;99.90;;;;;;5054933;28;20225;-61
2022/02/01 08:08:05;;;;;;;11.03;2.57;;;6.20;99.90;;;;;;5054646;28;20673;-60
2022/02/01 08:10:38;;;;;;;13.10;2.90;;;6.30;99.90;;;;;;5054155;28;20206;-61
2022/02/01 08:13:55;;;;;;;12.83;2.27;;;6.40;99.90;;;;;;5054970;28;20209;-61
2022/02/01 08:19:13;;;;;;;9.13;2.27;;;6.40;99.90;;;;;;4992853;28;20206;-61
2022/02/01 08:21:45;;;;;;;8.97;2.47;;;6.50;99.90;;;;;;5042115;28;20305;-61
2022/02/01 08:24:12;;;;;;;7.00;2.37;;;6.40;99.90;;;;;;5054433;28;20249;-61
2022/02/01 08:26:39;;;;;;;9.30;2.90;;;6.50;99.90;;;;;;5054808;28;20263;-61
2022/02/01 08:29:06;;;;;;;9.87;2.20;;;6.60;99.90;;;;;;5054187;28;20320;-60
2022/02/01 08:31:34;;;;;;;10.30;2.30;;;6.60;99.90;;;;;;5054409;28;20292;-61
2022/02/01 08:34:02;;;;;;;11.10;2.17;;;6.80;99.90;;;;;;5054332;28;20226;-61
2022/02/01 08:36:29;;;;;;;9.33;2.40;;;6.90;99.90;;;;;;5054207;28;20213;-61
2022/02/01 08:38:55;;;;;;;9.63;2.20;;;7.00;99.90;;;;;;5054221;28;20210;-61
2022/02/01 08:41:22;;;;;;;9.83;2.33;;;7.10;99.90;;;;;;5053932;28;20210;-61
2022/02/01 08:43:49;;;;;;;7.83;1.90;;;7.10;99.90;;;;;;5053729;28;20693;-61
2022/02/01 08:46:18;;;;;;;9.07;1.93;;;7.20;99.90;;;;;;5053888;28;20661;-61
2022/02/01 08:48:46;;;;;;;11.43;2.03;;;7.20;99.90;;;;;;5053840;28;20202;-61
2022/02/01 08:51:13;;;;;;;9.53;2.20;;;7.30;99.90;;;;;;5053404;28;20567;-61
2022/02/01 08:53:47;;;;;;;12.57;2.43;;;7.40;99.90;;;;;;5053637;28;20666;-61
2022/02/01 08:58:55;;;;;;;8.87;2.60;;;7.50;99.90;;;;;;5052076;28;20232;-61
2022/02/01 09:01:22;;;;;;;8.07;2.90;;;7.50;99.90;;;;;;5053762;28;20209;-61
2022/02/01 09:03:50;;;;;;;10.27;2.40;;;7.50;99.90;;;;;;5053322;28;20739;-61
2022/02/01 09:06:17;;;;;;;8.73;2.20;;;7.50;99.90;;;;;;5053556;28;20267;-61
2022/02/01 09:08:43;;;;;;;7.10;2.13;;;7.40;99.90;;;;;;5053607;28;20240;-64
2022/02/01 09:11:14;;;;;;;9.23;3.40;;;7.30;99.90;;;;;;5053395;28;20270;-61
2022/02/01 09:13:40;;;;;;;8.07;2.27;;;7.30;99.90;;;;;;5053581;28;20197;-61
2022/02/01 09:16:08;;;;;;;7.83;2.67;;;7.40;99.90;;;;;;5053581;28;20236;-61
2022/02/01 09:18:35;;;;;;;8.23;2.03;;;7.40;99.90;;;;;;5053518;28;20313;-61
2022/02/01 09:21:03;;;;;;;7.00;2.10;;;7.60;99.90;;;;;;5052744;28;20677;-61
2022/02/01 09:23:30;;;;;;;5.67;2.30;;;7.70;99.90;;;;;;5052974;28;20229;-61
2022/02/01 09:25:56;;;;;;;6.33;2.10;;;7.80;99.90;;;;;;5053309;28;20209;-61
2022/02/01 09:28:23;;;;;;;10.40;2.37;;;8.00;99.90;;;;;;5053424;28;20286;-61
2022/02/01 09:30:50;;;;;;;8.03;2.13;;;8.10;99.90;;;;;;5053016;28;20292;-61
2022/02/01 09:33:16;;;;;;;10.63;3.00;;;8.30;99.90;;;;;;5053200;28;20217;-61
2022/02/01 09:35:43;;;;;;;9.00;2.40;;;8.40;99.90;;;;;;5053035;28;20646;-61
2022/02/01 09:38:12;;;;;;;7.90;2.50;;;8.50;99.90;;;;;;5053158;28;20209;-61
2022/02/01 09:40:41;;;;;;;7.90;1.97;;;8.50;99.90;;;;;;5053203;28;20201;-61
2022/02/01 09:43:08;;;;;;;6.67;2.10;;;8.40;99.90;;;;;;5052900;28;20229;-61
2022/02/01 09:45:34;;;;;;;7.10;2.13;;;8.30;99.90;;;;;;5052930;28;20230;-61
2022/02/01 09:48:02;;;;;;;6.07;2.03;;;8.20;99.90;;;;;;5052651;28;20304;-61
2022/02/01 09:50:29;;;;;;;6.70;2.13;;;8.10;99.90;;;;;;5052647;28;20214;-61
2022/02/01 09:52:56;;;;;;;7.47;2.40;;;8.10;99.90;;;;;;5053289;28;20412;-61
2022/02/01 09:55:24;;;;;;;6.23;1.83;;;8.10;99.90;;;;;;5052819;28;20305;-61
2022/02/01 09:57:52;;;;;;;8.27;2.53;;;8.10;99.90;;;;;;5053228;28;20205;-61
2022/02/01 10:00:22;;;;;;;11.13;1.97;;;8.20;99.90;;;;;;5052717;28;20205;-62
2022/02/01 10:02:54;;;;;;;10.63;2.40;;;8.20;99.90;;;;;;5052900;28;20209;-61
2022/02/01 10:05:21;;;;;;;6.60;2.27;;;8.30;99.90;;;;;;5052623;28;20234;-61
2022/02/01 10:07:51;;;;;;;7.70;2.47;;;8.50;99.90;;;;;;5052679;28;20209;-61
2022/02/01 10:10:19;;;;;;;9.77;3.77;;;8.50;99.90;;;;;;5048208;28;20201;-61
2022/02/01 10:12:59;;;;;;;7.50;1.97;;;8.70;99.90;;;;;;5052452;28;20210;-64
2022/02/01 10:15:26;;;;;;;5.57;1.73;;;8.90;99.90;;;;;;5052192;28;20233;-65
2022/02/01 10:18:00;;;;;;;7.27;2.10;;;9.20;99.90;;;;;;5052300;28;20214;-63
2022/02/01 10:20:38;;;;;;;7.17;2.20;;;9.30;99.90;;;;;;5051873;28;20681;-67
2022/02/01 10:23:18;;;;;;;9.00;2.40;;;9.30;99.90;;;;;;5052191;28;20263;-64
2022/02/01 10:25:58;;;;;;;7.03;2.50;;;9.30;99.90;;;;;;5052023;28;20221;-64
2022/02/01 10:28:33;;;;;;;5.70;1.63;;;9.10;99.90;;;;;;5051922;28;20619;-67
2022/02/01 10:31:05;;;;;;;6.30;1.90;;;8.90;99.90;;;;;;5052174;28;20669;-65
2022/02/01 10:34:00;;;;;;;7.33;1.73;;;8.90;99.90;;;;;;5052054;28;20198;-64
2022/02/01 10:36:36;;;;;;;4.13;1.47;;;8.90;99.90;;;;;;5051754;28;20224;-65
2022/02/01 10:39:05;;;;;;;7.63;1.90;;;8.90;99.90;;;;;;5052109;28;20853;-68
2022/02/01 10:41:32;;;;;;;7.57;1.97;;;9.10;99.90;;;;;;5051607;28;20202;-62
2022/02/01 10:44:00;;;;;;;8.50;2.30;;;9.10;99.90;;;;;;5051756;28;20236;-64
2022/02/01 10:46:27;;;;;;;7.97;2.40;;;9.20;99.90;;;;;;5052177;28;20243;-65
2022/02/01 10:48:54;;;;;;;9.17;1.70;;;9.20;99.90;;;;;;5052008;28;20259;-64
2022/02/01 10:51:22;;;;;;;6.47;1.80;;;9.20;99.90;;;;;;5051709;28;20584;-64
2022/02/01 10:53:51;;;;;;;7.77;1.97;;;9.10;99.90;;;;;;5051642;28;20221;-65
2022/02/01 10:56:19;;;;;;;6.87;1.97;;;8.90;99.90;;;;;;5048876;28;20209;-64
2022/02/01 10:58:47;;;;;;;12.57;2.43;;;8.90;99.90;;;;;;5051646;28;20569;-64
2022/02/01 11:01:16;;;;;;;5.33;2.57;;;8.80;99.90;;;;;;5051174;28;20653;-62
2022/02/01 11:03:44;;;;;;;3.43;1.20;;;8.60;99.90;;;;;;5051954;28;20229;-64
2022/02/01 11:06:12;;;;;;;8.10;1.80;;;8.40;99.90;;;;;;5051559;28;20201;-62
2022/02/01 11:08:41;;;;;;;12.40;2.23;;;8.40;99.90;;;;;;5051590;28;20205;-62
2022/02/01 11:11:15;;;;;;;7.30;2.23;;;8.40;99.90;;;;;;5051154;28;20232;-62
2022/02/01 11:13:46;;;;;;;6.23;1.97;;;8.40;99.90;;;;;;5050899;28;20196;-62
2022/02/01 11:16:19;;;;;;;6.80;2.30;;;8.40;99.90;;;;;;5051923;28;20240;-61
2022/02/01 11:18:55;;;;;;;11.83;2.30;;;8.40;99.90;;;;;;5051499;28;20209;-63
2022/02/01 11:21:22;;;;;;;6.13;2.10;;;8.30;99.90;;;;;;5054313;28;20213;-63
2022/02/01 11:23:53;;;;;;;7.00;1.90;;;8.30;99.90;;;;;;5055358;28;20237;-63
2022/02/01 11:26:25;;;;;;;4.50;1.70;;;8.20;99.90;;;;;;5055401;28;20205;-63
2022/02/01 11:29:14;;;;;;;6.33;1.80;;;8.30;99.90;;;;;;5055349;28;20212;-63
2022/02/01 11:31:48;;;;;;;7.57;1.90;;;8.10;99.90;;;;;;5055157;28;20236;-63
2022/02/01 11:34:17;;;;;;;5.50;1.63;;;8.00;99.90;;;;;;5055354;28;20243;-63
2022/02/01 11:36:44;;;;;;;6.20;1.70;;;7.90;99.90;;;;;;5055190;28;20311;-62
2022/02/01 11:39:13;;;;;;;6.43;1.80;;;8.20;99.90;;;;;;5055115;28;20621;-62
2022/02/01 11:41:42;;;;;;;6.37;1.50;;;7.90;99.90;;;;;;5055173;28;20205;-63
2022/02/01 11:44:10;;;;;;;7.53;1.70;;;7.90;99.90;;;;;;5055474;28;20371;-62
2022/02/01 11:46:37;;;;;;;6.63;1.83;;;7.90;99.90;;;;;;5055226;28;20201;-62
2022/02/01 11:49:05;;;;;;;5.30;1.47;;;7.90;99.90;;;;;;5055177;28;20206;-62
2022/02/01 11:51:32;;;;;;;5.63;1.50;;;8.00;99.90;;;;;;5055775;28;20274;-63
2022/02/01 11:54:00;;;;;;;6.70;1.60;;;8.10;99.90;;;;;;5055899;28;20224;-62
2022/02/01 11:56:32;;;;;;;8.87;2.00;;;8.20;99.90;;;;;;5056274;28;20239;-62
2022/02/01 11:59:02;;;;;;;3.47;1.00;;;8.20;99.90;;;;;;5055721;28;20205;-62
2022/02/01 12:01:34;;;;;;;6.33;1.47;;;8.10;99.90;;;;;;5054891;28;20214;-61
2022/02/01 12:04:03;;;;;;;7.40;1.60;;;8.00;99.90;;;;;;5055093;28;20287;-61
2022/02/01 12:06:40;;;;;;;5.93;1.40;;;7.90;99.90;;;;;;5055277;28;20220;-62
2022/02/01 12:09:12;;;;;;;7.00;1.77;;;7.70;99.90;;;;;;5055338;28;20248;-61
2022/02/01 12:11:40;;;;;;;6.50;2.10;;;7.70;99.90;;;;;;5054536;28;20562;-62
2022/02/01 12:14:07;;;;;;;5.90;1.67;;;7.80;99.90;;;;;;5054264;28;20796;-63
2022/02/01 12:16:34;;;;;;;7.63;1.47;;;7.80;99.90;;;;;;5054550;28;20569;-62
2022/02/01 12:19:04;;;;;;;7.77;2.40;;;7.80;99.90;;;;;;5054723;28;20209;-63
2022/02/01 12:21:38;;;;;;;8.80;2.10;;;7.90;99.90;;;;;;5054799;28;20244;-63
2022/02/01 12:24:06;;;;;;;3.50;1.50;;;7.90;99.90;;;;;;5054507;28;20316;-63
2022/02/01 12:26:34;;;;;;;7.07;1.90;;;8.00;99.90;;;;;;5054463;28;20649;-61
2022/02/01 12:29:04;;;;;;;4.73;1.23;;;8.10;99.90;;;;;;5054800;28;20209;-61
2022/02/01 12:31:33;;;;;;;7.47;1.67;;;8.00;99.90;;;;;;5054163;28;20563;-61
2022/02/01 12:34:02;;;;;;;5.17;1.50;;;7.90;99.90;;;;;;5053960;28;20256;-61
2022/02/01 12:36:36;;;;;;;3.00;1.40;;;7.70;99.90;;;;;;5054444;28;20562;-61
2022/02/01 12:39:12;;;;;;;6.50;1.53;;;7.70;99.90;;;;;;5054647;28;20209;-61
2022/02/01 12:41:44;;;;;;;5.83;1.63;;;7.60;99.90;;;;;;5054187;28;20217;-61
2022/02/01 12:46:59;;;;;;;3.10;1.40;;;7.50;99.90;;;;;;5054664;28;20185;-61
2022/02/01 12:49:38;;;;;;;6.80;1.47;;;7.60;99.90;;;;;;5054901;28;20228;-61
2022/02/01 12:52:07;;;;;;;4.30;1.33;;;7.50;99.90;;;;;;5054347;28;20259;-61
2022/02/01 12:54:38;;;;;;;3.23;1.10;;;7.40;99.90;;;;;;5054629;28;20713;-61
2022/02/01 12:57:08;;;;;;;6.10;1.53;;;7.30;99.90;;;;;;5054184;28;20280;-61
2022/02/01 12:59:39;;;;;;;3.00;1.30;;;7.30;99.90;;;;;;5054128;28;20209;-61
2022/02/01 13:02:06;;;;;;;2.93;1.40;;;7.30;99.90;;;;;;5054064;28;20205;-61
2022/02/01 13:04:33;;;;;;;10.00;1.97;;;7.30;99.90;;;;;;5054084;28;20229;-61
2022/02/01 13:07:01;;;;;;;5.73;1.67;;;7.20;99.90;;;;;;5054260;28;20205;-61
2022/02/01 13:15:14;;;;;;;3.53;1.27;;;7.00;99.90;;;;;;5053745;28;20274;-61
2022/02/01 13:17:45;;;;;;;4.20;1.67;;;7.10;99.90;;;;;;5053571;28;20213;-61
2022/02/01 13:20:17;;;;;;;8.50;1.80;;;7.20;99.90;;;;;;5053970;28;20662;-61
2022/02/01 13:23:04;;;;;;;3.70;1.33;;;7.20;99.90;;;;;;5053592;28;20219;-61
2022/02/01 13:25:35;;;;;;;5.90;1.57;;;7.20;99.90;;;;;;5053811;28;20230;-61
2022/02/01 13:28:05;;;;;;;5.40;1.33;;;7.20;99.90;;;;;;5053920;28;20210;-61
2022/02/01 13:30:35;;;;;;;3.97;1.37;;;7.30;99.90;;;;;;5053248;28;20576;-61
2022/02/01 13:33:10;;;;;;;4.30;1.60;;;7.30;99.90;;;;;;5053432;28;20296;-60
2022/02/01 13:35:48;;;;;;;4.07;1.67;;;7.30;99.90;;;;;;5053455;28;20217;-61
2022/02/01 13:38:15;;;;;;;3.13;1.50;;;7.30;99.90;;;;;;5052925;28;20220;-62
2022/02/01 13:40:43;;;;;;;3.30;1.23;;;7.20;99.90;;;;;;5052908;28;20237;-61
2022/02/01 13:43:19;;;;;;;9.20;3.50;;;7.30;99.90;;;;;;5052604;28;20233;-61
2022/02/01 13:45:48;;;;;;;4.37;1.20;;;7.30;99.90;;;;;;5052642;28;20240;-61
2022/02/01 13:48:20;;;;;;;2.30;1.10;;;7.30;99.90;;;;;;5052990;28;20245;-61
2022/02/01 13:50:48;;;;;;;2.97;1.80;;;7.20;99.90;;;;;;5052814;28;20669;-61
2022/02/01 13:53:17;;;;;;;3.07;1.00;;;7.10;99.90;;;;;;5052964;28;20416;-61
2022/02/01 13:55:46;;;;;;;2.83;1.00;;;7.00;99.90;;;;;;5052548;28;20221;-61
2022/02/01 13:58:17;;;;;;;4.70;1.33;;;7.00;99.90;;;;;;5052488;28;20201;-61
2022/02/01 14:00:46;;;;;;;4.50;1.03;;;7.00;99.90;;;;;;5052895;28;20205;-61
2022/02/01 14:03:23;;;;;;;3.57;1.00;;;7.00;99.90;;;;;;5052588;28;20292;-61
2022/02/01 14:06:05;;;;;;;12.57;6.00;;;7.10;99.90;;;;;;5052435;28;20320;-62